Time;durP1;ratioP1;P1;durP2;ratioP2;P2;SDS_P1;SDS_P2;PMS_P1;PMS_P2;Temp;Humidity;BMP_temperature;BMP_pressure;BME280_temperature;BME280_humidity;BME280_pressure;Samples;Min_cycle;Max_cycle;Signal;HPM_P1;HPM_P2
2022/11/27 00:00:33;;;;;;;19.67;4.38;;;;;;;-143.48;85.05;118439.88;5058109;28;20005;-76
2022/11/27 00:02:59;;;;;;;17.08;4.80;;;;;;;-143.48;85.22;118439.88;5058301;28;20032;-78
2022/11/27 00:05:24;;;;;;;18.23;4.15;;;;;;;-143.48;85.60;118439.88;5057870;28;20075;-76
2022/11/27 00:07:49;;;;;;;17.67;4.20;;;;;;;-143.48;85.59;118439.88;5056450;28;20465;-77
2022/11/27 00:10:14;;;;;;;17.45;4.43;;;;;;;-143.48;85.47;118439.88;5057147;28;20060;-76
2022/11/27 00:12:40;;;;;;;14.57;4.30;;;;;;;-143.48;85.57;118439.88;5059894;28;20029;-76
2022/11/27 00:15:05;;;;;;;17.55;4.93;;;;;;;-143.48;85.65;118439.88;5066440;28;20028;-76
2022/11/27 00:17:31;;;;;;;21.30;4.43;;;;;;;-143.48;85.54;118439.88;5068044;28;20025;-77
2022/11/27 00:19:56;;;;;;;16.02;5.10;;;;;;;-143.48;85.91;118439.88;5069901;28;20048;-77
2022/11/27 00:22:21;;;;;;;16.23;4.50;;;;;;;-143.48;85.49;118439.88;5063575;28;20031;-77
2022/11/27 00:24:48;;;;;;;14.13;3.92;;;;;;;-143.48;85.62;118439.88;5066634;28;20080;-79
2022/11/27 00:27:13;;;;;;;12.23;4.13;;;;;;;-143.48;85.62;118439.88;5061764;28;20044;-81
2022/11/27 00:29:38;;;;;;;18.52;4.38;;;;;;;-143.48;85.96;118439.88;5072331;22;20144;-43
2022/11/27 00:32:06;;;;;;;16.27;4.72;;;;;;;-143.48;85.96;118439.88;5054673;28;20029;-43
2022/11/27 00:34:32;;;;;;;19.92;4.65;;;;;;;-143.48;85.68;118439.88;5054332;28;20021;-42
2022/11/27 00:36:58;;;;;;;18.55;4.53;;;;;;;-143.48;85.65;118439.88;5052647;28;20021;-43
2022/11/27 00:39:23;;;;;;;18.75;4.30;;;;;;;-143.48;85.80;118439.88;5053797;28;20025;-42
2022/11/27 00:41:48;;;;;;;18.52;3.97;;;;;;;-143.48;85.83;118439.88;5053862;28;20017;-42
2022/11/27 00:44:14;;;;;;;14.20;4.70;;;;;;;-143.48;85.35;118439.88;5069173;28;20041;-43
2022/11/27 00:46:43;;;;;;;13.20;3.83;;;;;;;-143.48;85.66;118439.88;5054126;28;20048;-43
2022/11/27 00:49:11;;;;;;;17.88;4.70;;;;;;;-143.48;84.97;118439.88;5054416;28;20028;-41
2022/11/27 00:51:36;;;;;;;15.80;3.78;;;;;;;-143.48;85.52;118439.88;5052291;28;20392;-43
2022/11/27 00:54:02;;;;;;;9.32;3.80;;;;;;;-143.48;84.89;118439.88;5052266;28;20024;-42
2022/11/27 00:56:29;;;;;;;18.95;4.47;;;;;;;-143.48;85.54;118439.88;5053879;28;20028;-43
2022/11/27 00:58:55;;;;;;;12.38;4.05;;;;;;;-143.48;84.71;118439.88;5053537;28;20430;-42
2022/11/27 01:01:27;;;;;;;10.32;3.63;;;;;;;-143.48;84.85;118439.88;5053810;28;20060;-42
2022/11/27 01:03:54;;;;;;;18.30;4.22;;;;;;;-143.48;84.86;118439.88;5053487;28;20444;-44
2022/11/27 01:06:19;;;;;;;18.13;4.32;;;;;;;-143.48;84.98;118439.88;5054074;28;20028;-44
2022/11/27 01:08:45;;;;;;;23.67;4.10;;;;;;;-143.48;84.78;118439.88;5068956;28;20387;-44
2022/11/27 01:11:17;;;;;;;17.75;4.00;;;;;;;-143.48;84.35;118439.88;5053451;28;20032;-44
2022/11/27 01:13:43;;;;;;;17.30;3.90;;;;;;;-143.48;84.08;118439.88;5053260;28;20460;-44
2022/11/27 01:16:11;;;;;;;11.20;3.47;;;;;;;-143.48;83.64;118439.88;5053350;28;20021;-43
2022/11/27 01:18:38;;;;;;;14.45;3.72;;;;;;;-143.48;83.49;118439.88;5048517;28;20472;-43
2022/11/27 01:21:04;;;;;;;15.57;3.63;;;;;;;-143.48;83.37;118439.88;5033219;28;20049;-43
2022/11/27 01:23:30;;;;;;;14.65;3.45;;;;;;;-143.48;83.35;118439.88;5032611;28;20022;-44
2022/11/27 01:25:56;;;;;;;12.30;3.65;;;;;;;-143.48;82.94;118439.88;5030365;28;20028;-44
2022/11/27 01:28:23;;;;;;;16.60;4.10;;;;;;;-143.48;82.49;118439.88;5031984;28;20048;-44
2022/11/27 01:30:49;;;;;;;13.05;3.42;;;;;;;-143.48;82.33;118439.88;5031452;28;20514;-44
2022/11/27 01:33:14;;;;;;;18.40;3.60;;;;;;;-143.48;82.51;118439.88;5030095;28;20651;-44
2022/11/27 01:35:40;;;;;;;13.07;3.78;;;;;;;-143.48;82.27;118439.88;5031062;28;20155;-44
2022/11/27 01:38:05;;;;;;;13.63;3.47;;;;;;;-143.48;82.40;118439.88;5031028;28;20108;-44
2022/11/27 01:40:30;;;;;;;14.25;3.58;;;;;;;-143.48;81.91;118439.88;5031613;28;20422;-43
2022/11/27 01:42:55;;;;;;;16.38;4.13;;;;;;;-143.48;82.23;118439.88;5031778;28;20022;-44
2022/11/27 01:45:22;;;;;;;18.92;4.13;;;;;;;-143.48;82.09;118439.88;5031639;28;20025;-44
2022/11/27 01:47:53;;;;;;;13.75;3.90;;;;;;;-143.48;82.74;118439.88;5031690;28;20049;-44
2022/11/27 01:50:32;;;;;;;8.40;3.22;;;;;;;-143.48;82.04;118439.88;5048079;28;20468;-44
2022/11/27 01:53:04;;;;;;;12.10;3.45;;;;;;;-143.48;82.36;118439.88;5036329;28;20022;-43
2022/11/27 01:55:33;;;;;;;13.95;3.88;;;;;;;-143.48;82.46;118439.88;5036144;28;20444;-43
2022/11/27 01:58:21;;;;;;;12.77;3.78;;;;;;;-143.48;82.33;118439.88;5037255;28;20464;-44
2022/11/27 02:00:46;;;;;;;12.23;3.70;;;;;;;-143.48;82.41;118439.88;5037051;28;20048;-45
2022/11/27 02:03:12;;;;;;;10.80;3.55;;;;;;;-143.48;82.32;118439.88;5036839;28;20021;-43
2022/11/27 02:05:37;;;;;;;17.30;3.95;;;;;;;-143.48;82.04;118439.88;5035557;28;20028;-43
2022/11/27 02:08:06;;;;;;;14.70;3.58;;;;;;;-143.48;82.33;118439.88;5036918;28;20033;-44
2022/11/27 02:10:47;;;;;;;10.52;3.05;;;;;;;-143.48;81.80;118439.88;5036439;28;20025;-44
2022/11/27 02:13:46;;;;;;;15.52;3.65;;;;;;;-143.48;82.10;118439.88;5036713;28;20029;-43
2022/11/27 02:16:20;;;;;;;10.32;4.13;;;;;;;-143.48;82.07;118439.88;5036292;28;20053;-45
2022/11/27 02:19:07;;;;;;;15.85;3.55;;;;;;;-143.48;81.89;118439.88;5036622;28;20460;-43
2022/11/27 02:21:53;;;;;;;10.77;3.05;;;;;;;-143.48;82.13;118439.88;5036873;28;20025;-43
2022/11/27 02:24:47;;;;;;;10.20;3.40;;;;;;;-143.48;82.60;118439.88;5036801;28;20029;-44
2022/11/27 02:27:58;;;;;;;14.30;3.75;;;;;;;-143.48;82.59;118439.88;5036796;28;20156;-44
2022/11/27 02:30:24;;;;;;;10.77;3.13;;;;;;;-143.48;82.63;118439.88;5014326;28;20062;-44
2022/11/27 02:32:57;;;;;;;16.52;4.68;;;;;;;-143.48;82.43;118439.88;4998259;28;20408;-43
2022/11/27 02:35:26;;;;;;;;;;;;;;;-143.48;82.55;118439.88;5027481;28;20247;-44
2022/11/27 02:38:05;;;;;;;8.75;3.60;;;;;;;-143.48;82.27;118439.88;5036297;28;19995;-43
2022/11/27 02:40:39;;;;;;;12.70;3.55;;;;;;;-143.48;82.41;118439.88;5036714;28;20021;-43
2022/11/27 02:43:11;;;;;;;12.00;3.50;;;;;;;-143.48;82.27;118439.88;5036565;28;20105;-45
2022/11/27 02:45:46;;;;;;;14.05;3.45;;;;;;;-143.48;82.07;118439.88;5036386;28;20083;-43
2022/11/27 02:48:14;;;;;;;11.18;3.60;;;;;;;-143.48;82.43;118439.88;5036159;28;20033;-43
2022/11/27 02:50:42;;;;;;;14.07;3.53;;;;;;;-143.48;82.30;118439.88;5036524;28;20029;-43
2022/11/27 02:53:12;;;;;;;11.00;3.45;;;;;;;-143.48;82.11;118439.88;5036693;28;20083;-43
2022/11/27 02:55:39;;;;;;;12.07;3.40;;;;;;;-143.48;82.16;118439.88;5035974;28;20040;-44
2022/11/27 02:58:09;;;;;;;18.83;4.45;;;;;;;-143.48;81.55;118439.88;5035941;28;20462;-43
2022/11/27 03:00:36;;;;;;;19.15;4.35;;;;;;;-143.48;81.54;118439.88;5036444;28;20041;-43
2022/11/27 03:03:07;;;;;;;12.35;3.85;;;;;;;-143.48;81.90;118439.88;5035833;28;20029;-43
2022/11/27 03:05:37;;;;;;;12.32;3.50;;;;;;;-143.48;81.32;118439.88;5035792;28;20021;-44
2022/11/27 03:08:19;;;;;;;10.85;3.83;;;;;;;-143.48;80.89;118439.88;5036099;28;20052;-44
2022/11/27 03:11:00;;;;;;;13.57;3.85;;;;;;;-143.48;80.74;118439.88;5036215;28;20071;-44
2022/11/27 03:13:27;;;;;;;8.65;3.47;;;;;;;-143.48;81.23;118439.88;5035621;28;20518;-43
2022/11/27 03:16:14;;;;;;;14.38;4.20;;;;;;;-143.48;81.38;118439.88;5035592;28;20032;-44
2022/11/27 03:19:06;;;;;;;12.18;3.65;;;;;;;-143.48;81.11;118439.88;5035543;28;20029;-44
2022/11/27 03:21:39;;;;;;;12.27;3.70;;;;;;;-143.48;81.91;118439.88;5035905;28;20033;-44
2022/11/27 03:24:06;;;;;;;12.93;4.40;;;;;;;-143.48;80.66;118439.88;5035432;28;20087;-44
2022/11/27 03:26:31;;;;;;;14.68;3.78;;;;;;;-143.48;80.89;118439.88;5035763;28;20025;-44
2022/11/27 03:28:59;;;;;;;15.35;3.67;;;;;;;-143.48;80.97;118439.88;5035263;28;20503;-44
2022/11/27 03:31:26;;;;;;;12.93;3.70;;;;;;;-143.48;80.52;118439.88;5035413;28;20030;-44
2022/11/27 03:33:53;;;;;;;13.90;3.70;;;;;;;-143.48;80.27;118439.88;5035542;28;20372;-45
2022/11/27 03:36:20;;;;;;;14.68;4.20;;;;;;;-143.48;80.13;118439.88;5051049;28;20026;-44
2022/11/27 03:38:48;;;;;;;23.70;4.80;;;;;;;-143.48;80.24;118439.88;5035190;28;20403;-45
2022/11/27 03:41:30;;;;;;;11.68;3.78;;;;;;;-143.48;80.21;118439.88;5035420;28;20033;-43
2022/11/27 03:44:17;;;;;;;21.57;4.23;;;;;;;-143.48;80.07;118439.88;5035286;28;20032;-45
2022/11/27 03:47:18;;;;;;;11.65;3.75;;;;;;;-143.48;80.52;118439.88;5050302;28;20364;-43
2022/11/27 03:50:02;;;;;;;12.90;4.05;;;;;;;-143.48;80.16;118439.88;5035016;28;20116;-43
2022/11/27 03:52:47;;;;;;;19.60;4.05;;;;;;;-143.48;79.81;118439.88;5035415;28;20033;-44
2022/11/27 03:55:18;;;;;;;12.90;3.58;;;;;;;-143.48;80.03;118439.88;5034941;28;20372;-44
2022/11/27 03:58:02;;;;;;;17.67;3.63;;;;;;;-143.48;80.17;118439.88;5035005;28;20041;-42
2022/11/27 04:00:33;;;;;;;15.50;4.22;;;;;;;-143.48;79.53;118439.88;5034629;28;20037;-44
2022/11/27 04:02:58;;;;;;;12.35;3.60;;;;;;;-143.48;79.63;118439.88;5034758;28;20071;-43
2022/11/27 04:05:24;;;;;;;14.02;3.97;;;;;;;-143.48;79.82;118439.88;5034667;28;20029;-45
2022/11/27 04:07:49;;;;;;;11.38;3.97;;;;;;;-143.48;79.82;118439.88;5034891;28;20029;-44
2022/11/27 04:10:15;;;;;;;11.75;4.22;;;;;;;-143.48;79.86;118439.88;5034502;28;20031;-43
2022/11/27 04:12:40;;;;;;;14.38;4.20;;;;;;;-143.48;80.10;118439.88;5034844;28;20108;-44
2022/11/27 04:15:06;;;;;;;11.85;3.90;;;;;;;-143.48;79.38;118439.88;5033841;28;20021;-45
2022/11/27 04:17:32;;;;;;;15.43;4.35;;;;;;;-143.48;79.52;118439.88;5034934;28;20031;-43
2022/11/27 04:19:57;;;;;;;15.70;4.32;;;;;;;-143.48;79.58;118439.88;5034273;28;20461;-44
2022/11/27 04:22:22;;;;;;;13.00;4.15;;;;;;;-143.48;79.40;118439.88;5034684;28;20033;-44
2022/11/27 04:24:48;;;;;;;12.82;4.07;;;;;;;-143.48;79.22;118439.88;5034488;28;20036;-45
2022/11/27 04:27:13;;;;;;;12.80;4.13;;;;;;;-143.48;79.18;118439.88;5034845;28;20448;-44
2022/11/27 04:29:39;;;;;;;15.35;4.40;;;;;;;-143.48;78.94;118439.88;5034060;28;20499;-43
2022/11/27 04:32:04;;;;;;;15.07;4.25;;;;;;;-143.48;79.14;118439.88;5034419;28;20018;-43
2022/11/27 04:34:30;;;;;;;11.20;4.10;;;;;;;-143.48;78.90;118439.88;5034431;28;20172;-43
2022/11/27 04:36:56;;;;;;;13.75;4.43;;;;;;;-143.48;79.22;118439.88;5034373;28;20036;-44
2022/11/27 04:39:21;;;;;;;14.27;4.00;;;;;;;-143.48;79.26;118439.88;5034063;28;20030;-43
2022/11/27 04:41:47;;;;;;;17.23;4.97;;;;;;;-143.48;79.46;118439.88;5033934;28;20029;-43
2022/11/27 04:44:13;;;;;;;18.58;4.50;;;;;;;-143.48;79.06;118439.88;5034109;28;20101;-44
2022/11/27 04:46:38;;;;;;;8.15;3.67;;;;;;;-143.48;78.93;118439.88;5034175;28;20036;-43
2022/11/27 04:49:03;;;;;;;15.48;4.55;;;;;;;-143.48;78.73;118439.88;5049242;28;20341;-44
2022/11/27 04:51:29;;;;;;;11.20;4.68;;;;;;;-143.48;78.65;118439.88;5034126;28;20022;-44
2022/11/27 04:53:54;;;;;;;15.23;4.25;;;;;;;-143.48;78.80;118439.88;5032590;28;20021;-44
2022/11/27 04:56:20;;;;;;;15.23;5.30;;;;;;;-143.48;78.94;118439.88;5033783;28;20492;-44
2022/11/27 04:58:45;;;;;;;13.70;4.95;;;;;;;-143.48;78.60;118439.88;5033630;28;20036;-43
2022/11/27 05:01:10;;;;;;;14.65;4.75;;;;;;;-143.48;78.78;118439.88;5033749;28;20071;-44
2022/11/27 05:03:36;;;;;;;10.57;4.47;;;;;;;-143.48;78.53;118439.88;5033756;28;20495;-43
2022/11/27 05:06:02;;;;;;;13.45;4.53;;;;;;;-143.48;78.51;118439.88;5033628;28;20026;-44
2022/11/27 05:08:29;;;;;;;14.75;4.95;;;;;;;-143.48;78.40;118439.88;5033591;28;20040;-43
2022/11/27 05:11:04;;;;;;;11.95;4.57;;;;;;;-143.48;78.61;118439.88;5033534;28;20052;-43
2022/11/27 05:13:30;;;;;;;13.30;5.15;;;;;;;-143.48;78.20;118439.88;5033434;28;20104;-44
2022/11/27 05:15:55;;;;;;;10.18;4.50;;;;;;;-143.48;78.19;118439.88;5032894;28;20064;-43
2022/11/27 05:18:21;;;;;;;9.45;4.55;;;;;;;-143.48;78.21;118439.88;5033423;28;20025;-43
2022/11/27 05:20:46;;;;;;;20.73;5.47;;;;;;;-143.48;78.14;118439.88;5033414;28;20033;-43
2022/11/27 05:23:11;;;;;;;13.55;4.82;;;;;;;-143.48;77.74;118439.88;5033372;28;20036;-43
2022/11/27 05:25:37;;;;;;;9.60;3.88;;;;;;;-143.48;77.81;118439.88;5033761;28;20094;-43
2022/11/27 05:28:02;;;;;;;9.80;4.45;;;;;;;-143.48;77.93;118439.88;5033348;28;20026;-43
2022/11/27 05:30:28;;;;;;;13.77;4.50;;;;;;;-143.48;78.20;118439.88;5033159;28;20049;-43
2022/11/27 05:32:53;;;;;;;10.35;4.20;;;;;;;-143.48;77.48;118439.88;5033261;28;20110;-43
2022/11/27 05:35:18;;;;;;;16.33;4.28;;;;;;;-143.48;77.45;118439.88;5033767;28;20155;-43
2022/11/27 05:37:43;;;;;;;9.80;4.20;;;;;;;-143.48;77.61;118439.88;5033120;28;20380;-43
2022/11/27 05:40:09;;;;;;;14.75;4.82;;;;;;;-143.48;77.79;118439.88;5033206;28;20026;-43
2022/11/27 05:42:34;;;;;;;11.43;4.22;;;;;;;-143.48;77.36;118439.88;5033201;28;20133;-43
2022/11/27 05:45:00;;;;;;;15.15;4.95;;;;;;;-143.48;78.28;118439.88;5033080;28;20079;-43
2022/11/27 05:47:25;;;;;;;13.55;4.20;;;;;;;-143.48;78.38;118439.88;5033020;28;20032;-43
2022/11/27 05:49:50;;;;;;;16.63;4.20;;;;;;;-143.48;78.93;118439.88;5033422;28;20404;-43
2022/11/27 05:52:16;;;;;;;11.23;4.55;;;;;;;-143.48;79.29;118439.88;5033083;28;20443;-43
2022/11/27 05:54:41;;;;;;;14.68;4.50;;;;;;;-143.48;79.32;118439.88;5033306;28;20026;-43
2022/11/27 05:57:06;;;;;;;9.50;4.15;;;;;;;-143.48;79.75;118439.88;5032989;28;20091;-44
2022/11/27 05:59:31;;;;;;;8.32;4.03;;;;;;;-143.48;79.96;118439.88;5033398;28;20036;-43
2022/11/27 06:01:57;;;;;;;11.45;4.45;;;;;;;-143.48;80.16;118439.88;5032962;28;20021;-43
2022/11/27 06:04:22;;;;;;;8.48;3.63;;;;;;;-143.48;80.73;118439.88;5032927;28;20037;-43
2022/11/27 06:06:47;;;;;;;11.63;4.22;;;;;;;-143.48;80.68;118439.88;5032982;28;20424;-43
2022/11/27 06:09:13;;;;;;;13.23;4.60;;;;;;;-143.48;81.18;118439.88;5033119;28;20025;-43
2022/11/27 06:11:38;;;;;;;11.43;4.22;;;;;;;-143.48;81.59;118439.88;5032933;28;20491;-42
2022/11/27 06:14:07;;;;;;;14.40;4.15;;;;;;;-143.48;81.68;118439.88;5032818;28;20056;-42
2022/11/27 06:16:32;;;;;;;14.65;4.75;;;;;;;-143.48;82.27;118439.88;5032719;28;20049;-43
2022/11/27 06:18:58;;;;;;;10.85;3.90;;;;;;;-143.48;82.63;118439.88;5033126;28;20036;-43
2022/11/27 06:21:23;;;;;;;9.57;4.18;;;;;;;-143.48;82.23;118439.88;5032717;28;20075;-42
2022/11/27 06:23:53;;;;;;;10.65;4.03;;;;;;;-143.48;82.70;118439.88;5048114;28;20030;-43
2022/11/27 06:26:21;;;;;;;14.48;5.00;;;;;;;-143.48;83.12;118439.88;5032999;28;20052;-44
2022/11/27 06:28:47;;;;;;;12.93;4.43;;;;;;;-143.48;82.88;118439.88;5032467;28;20053;-44
2022/11/27 06:31:15;;;;;;;12.75;3.65;;;;;;;-143.48;82.66;118439.88;5032945;28;20369;-43
2022/11/27 06:33:41;;;;;;;13.95;4.10;;;;;;;-143.48;82.99;118439.88;5032636;28;20026;-43
2022/11/27 06:36:07;;;;;;;8.68;3.22;;;;;;;-143.48;83.26;118439.88;5032891;28;20036;-43
2022/11/27 06:38:34;;;;;;;14.27;4.28;;;;;;;-143.48;83.54;118439.88;5034699;28;20025;-42
2022/11/27 06:41:20;;;;;;;9.52;3.67;;;;;;;-143.48;83.24;118439.88;5051549;28;20029;-43
2022/11/27 06:43:45;;;;;;;12.55;4.00;;;;;;;-143.48;83.17;118439.88;5036595;28;20025;-43
2022/11/27 06:46:17;;;;;;;10.52;3.83;;;;;;;-143.48;83.15;118439.88;5036999;28;20036;-42
2022/11/27 06:48:44;;;;;;;13.18;3.95;;;;;;;-143.48;83.48;118439.88;5036090;28;20120;-43
2022/11/27 06:51:11;;;;;;;9.23;3.55;;;;;;;-143.48;83.30;118439.88;5036629;28;20025;-43
2022/11/27 06:53:37;;;;;;;12.52;4.03;;;;;;;-143.48;83.49;118439.88;5035922;28;20014;-43
2022/11/27 06:56:04;;;;;;;10.45;4.18;;;;;;;-143.48;83.46;118439.88;5035990;28;20036;-42
2022/11/27 06:58:29;;;;;;;10.98;4.00;;;;;;;-143.48;83.89;118439.88;5035827;28;20025;-43
2022/11/27 07:01:04;;;;;;;12.30;4.07;;;;;;;-143.48;83.98;118439.88;5036174;28;20083;-44
2022/11/27 07:03:29;;;;;;;10.57;4.10;;;;;;;-143.48;83.91;118439.88;5035770;28;20063;-42
2022/11/27 07:05:58;;;;;;;10.68;4.35;;;;;;;-143.48;84.79;118439.88;5035776;28;20052;-42
2022/11/27 07:08:24;;;;;;;13.77;4.15;;;;;;;-143.48;84.75;118439.88;5036006;28;20104;-42
2022/11/27 07:10:49;;;;;;;10.00;3.95;;;;;;;-143.48;85.42;118439.88;5036197;28;20065;-43
2022/11/27 07:13:15;;;;;;;11.52;3.83;;;;;;;-143.48;85.57;118439.88;5035943;28;20021;-43
2022/11/27 07:15:40;;;;;;;10.40;4.40;;;;;;;-143.48;85.94;118439.88;5035870;28;20033;-42
2022/11/27 07:18:05;;;;;;;11.75;3.55;;;;;;;-143.48;85.98;118439.88;5034237;28;20040;-43
2022/11/27 07:20:31;;;;;;;10.75;4.03;;;;;;;-143.48;85.95;118439.88;5035860;28;20030;-44
2022/11/27 07:22:56;;;;;;;7.35;3.70;;;;;;;-143.48;86.23;118439.88;5035535;28;20108;-43
2022/11/27 07:25:21;;;;;;;9.10;3.92;;;;;;;-143.48;86.77;118439.88;5035634;28;20017;-43
2022/11/27 07:27:47;;;;;;;10.85;4.30;;;;;;;-143.48;87.03;118439.88;5035343;28;20018;-43
2022/11/27 07:30:13;;;;;;;10.50;4.20;;;;;;;-143.48;86.98;118439.88;5035510;28;20045;-44
2022/11/27 07:32:38;;;;;;;9.10;4.00;;;;;;;-143.48;86.77;118439.88;5035424;28;20468;-43
2022/11/27 07:35:04;;;;;;;10.32;3.28;;;;;;;-143.48;87.36;118439.88;5035584;28;20041;-43
2022/11/27 07:37:30;;;;;;;12.73;4.07;;;;;;;-143.48;87.77;118439.88;5035470;28;20025;-44
2022/11/27 07:39:56;;;;;;;10.85;4.30;;;;;;;-143.48;87.55;118439.88;5035446;28;20033;-43
2022/11/27 07:42:21;;;;;;;10.43;3.75;;;;;;;-143.48;87.88;118439.88;5034988;28;20033;-42
2022/11/27 07:44:46;;;;;;;10.68;4.30;;;;;;;-143.48;87.69;118439.88;5034981;28;20031;-43
2022/11/27 07:47:11;;;;;;;11.70;4.38;;;;;;;-143.48;87.92;118439.88;5035265;28;20426;-43
2022/11/27 07:49:37;;;;;;;9.73;3.95;;;;;;;-143.48;87.17;118439.88;5034074;28;20026;-43
2022/11/27 07:52:02;;;;;;;9.65;3.83;;;;;;;-143.48;87.47;118439.88;5035205;28;20116;-43
2022/11/27 07:54:27;;;;;;;12.95;4.00;;;;;;;-143.48;87.69;118439.88;5034938;28;20018;-43
2022/11/27 07:56:52;;;;;;;11.50;3.90;;;;;;;-143.48;87.12;118439.88;5035070;28;20029;-43
2022/11/27 07:59:18;;;;;;;8.68;3.80;;;;;;;-143.48;86.95;118439.88;5035074;28;20112;-42
2022/11/27 08:01:43;;;;;;;9.40;4.03;;;;;;;-143.48;87.33;118439.88;5033518;28;20365;-44
2022/11/27 08:04:09;;;;;;;9.68;4.00;;;;;;;-143.48;87.36;118439.88;5035480;28;20072;-43
2022/11/27 08:06:34;;;;;;;9.07;3.65;;;;;;;-143.48;87.29;118439.88;5035300;28;20104;-43
2022/11/27 08:08:59;;;;;;;11.77;3.80;;;;;;;-143.48;87.26;118439.88;5035158;28;20457;-43
2022/11/27 08:11:28;;;;;;;11.55;3.88;;;;;;;-143.48;87.75;118439.88;5034830;28;20021;-43
2022/11/27 08:13:59;;;;;;;9.90;3.95;;;;;;;-143.48;87.37;118439.88;5034840;28;20036;-42
2022/11/27 08:16:25;;;;;;;8.88;3.88;;;;;;;-143.48;87.40;118439.88;5033197;28;20075;-43
2022/11/27 08:18:51;;;;;;;10.65;3.83;;;;;;;-143.48;87.15;118439.88;5034461;28;20030;-43
2022/11/27 08:21:17;;;;;;;12.23;4.00;;;;;;;-143.48;87.36;118439.88;5034280;28;20025;-43
2022/11/27 08:23:42;;;;;;;12.60;4.07;;;;;;;-143.48;87.83;118439.88;5034559;28;20079;-43
2022/11/27 08:26:09;;;;;;;7.95;3.80;;;;;;;-143.48;87.51;118439.88;5034273;28;20021;-42
2022/11/27 08:28:35;;;;;;;8.70;4.38;;;;;;;-143.48;87.70;118439.88;5034379;28;20025;-43
2022/11/27 08:31:02;;;;;;;8.20;3.50;;;;;;;-143.48;87.79;118439.88;5034275;28;20060;-42
2022/11/27 08:33:28;;;;;;;11.20;4.60;;;;;;;-143.48;87.84;118439.88;5034424;28;20126;-42
2022/11/27 08:35:54;;;;;;;10.52;3.97;;;;;;;-143.48;87.42;118439.88;5034386;28;20179;-44
2022/11/27 08:38:20;;;;;;;8.90;3.90;;;;;;;-143.48;88.40;118439.88;5034177;28;20026;-44
2022/11/27 08:41:07;;;;;;;11.68;3.92;;;;;;;-143.48;87.62;118439.88;5032959;28;20040;-43
2022/11/27 08:43:33;;;;;;;11.20;4.13;;;;;;;-143.48;87.82;118439.88;5032818;28;20025;-42
2022/11/27 08:46:01;;;;;;;11.30;3.72;;;;;;;-143.48;87.90;118439.88;5034026;28;20025;-43
2022/11/27 08:48:27;;;;;;;11.45;4.28;;;;;;;-143.48;87.88;118439.88;5033816;28;20108;-44
2022/11/27 08:50:52;;;;;;;9.80;4.00;;;;;;;-143.48;88.36;118439.88;5034041;28;20120;-43
2022/11/27 08:53:18;;;;;;;9.18;3.75;;;;;;;-143.48;87.84;118439.88;5033818;28;20070;-44
2022/11/27 08:55:45;;;;;;;13.77;4.50;;;;;;;-143.48;88.10;118439.88;5034247;28;20025;-45
2022/11/27 08:58:11;;;;;;;7.82;3.20;;;;;;;-143.48;87.76;118439.88;5032598;28;20025;-44
2022/11/27 09:00:37;;;;;;;8.15;3.65;;;;;;;-143.48;87.76;118439.88;5033423;28;20025;-43
2022/11/27 09:03:03;;;;;;;11.70;4.32;;;;;;;-143.48;87.83;118439.88;5033752;28;20036;-44
2022/11/27 09:05:29;;;;;;;8.27;3.60;;;;;;;-143.48;88.27;118439.88;5033395;28;20419;-45
2022/11/27 09:07:55;;;;;;;13.70;3.63;;;;;;;-143.48;87.99;118439.88;5034116;28;20025;-44
2022/11/27 09:10:21;;;;;;;7.95;3.67;;;;;;;-143.48;87.99;118439.88;5033567;28;20025;-43
2022/11/27 09:12:50;;;;;;;13.00;3.90;;;;;;;-143.48;88.06;118439.88;5048841;28;20033;-43
2022/11/27 09:15:16;;;;;;;9.75;3.53;;;;;;;-143.48;88.43;118439.88;5033455;28;20026;-44
2022/11/27 09:17:42;;;;;;;11.20;4.25;;;;;;;-143.48;88.67;118439.88;5033282;28;20021;-44
2022/11/27 09:20:08;;;;;;;14.23;4.13;;;;;;;-143.48;87.60;118439.88;5033714;28;20048;-43
2022/11/27 09:22:34;;;;;;;9.40;4.10;;;;;;;-143.48;87.45;118439.88;5033868;28;20103;-44
2022/11/27 09:24:59;;;;;;;11.25;4.15;;;;;;;-143.48;87.91;118439.88;5033436;28;20025;-44
2022/11/27 09:27:24;;;;;;;11.25;4.38;;;;;;;-143.48;87.79;118439.88;5033264;28;20030;-43
2022/11/27 09:29:50;;;;;;;13.88;4.28;;;;;;;-143.48;88.11;118439.88;5031613;28;20049;-43
2022/11/27 09:32:15;;;;;;;11.57;4.55;;;;;;;-143.48;87.50;118439.88;5033523;28;20080;-43
2022/11/27 09:34:41;;;;;;;8.45;3.88;;;;;;;-143.48;88.14;118439.88;5033218;28;20091;-45
2022/11/27 09:37:08;;;;;;;12.75;4.00;;;;;;;-143.48;87.46;118439.88;5033176;28;20065;-45
2022/11/27 09:39:33;;;;;;;12.50;4.35;;;;;;;-143.48;87.75;118439.88;5033379;28;20025;-43
2022/11/27 09:42:01;;;;;;;8.07;4.00;;;;;;;-143.48;88.16;118439.88;5048724;28;20372;-43
2022/11/27 09:44:32;;;;;;;11.55;4.30;;;;;;;-143.48;88.33;118439.88;5033191;28;20033;-44
2022/11/27 09:47:03;;;;;;;9.23;4.15;;;;;;;-143.48;87.86;118439.88;5033287;28;20056;-44
2022/11/27 09:49:55;;;;;;;8.20;4.03;;;;;;;-143.48;88.37;118439.88;5033551;28;20440;-43
2022/11/27 09:52:38;;;;;;;10.60;3.78;;;;;;;-143.48;88.12;118439.88;5033691;28;20076;-44
2022/11/27 09:55:13;;;;;;;14.48;4.55;;;;;;;-143.48;88.48;118439.88;5033057;28;20029;-43
2022/11/27 09:57:40;;;;;;;11.38;4.15;;;;;;;-143.48;88.39;118439.88;5032999;28;20384;-44
2022/11/27 10:00:26;;;;;;;10.60;4.30;;;;;;;-143.48;88.77;118439.88;5033101;28;20100;-45
2022/11/27 10:02:52;;;;;;;11.27;4.18;;;;;;;-143.48;88.33;118439.88;5032522;28;20037;-45
2022/11/27 10:05:22;;;;;;;9.48;4.32;;;;;;;-143.48;88.22;118439.88;5033003;28;20079;-44
2022/11/27 10:07:57;;;;;;;9.63;4.53;;;;;;;-143.48;88.77;118439.88;5033074;28;20091;-43
2022/11/27 10:10:56;;;;;;;12.57;5.03;;;;;;;-143.48;88.83;118439.88;5033126;28;20022;-43
2022/11/27 10:13:46;;;;;;;11.45;4.05;;;;;;;-143.48;88.33;118439.88;5034988;28;20034;-43
2022/11/27 10:16:35;;;;;;;13.52;4.65;;;;;;;-143.48;88.00;118439.88;5037245;28;20373;-43
2022/11/27 10:19:37;;;;;;;12.90;4.40;;;;;;;-143.48;88.35;118439.88;5036759;28;20105;-43
2022/11/27 10:22:28;;;;;;;9.25;4.43;;;;;;;-143.48;87.91;118439.88;5036602;28;20357;-44
2022/11/27 10:25:48;;;;;;;12.55;4.60;;;;;;;-143.48;87.75;118439.88;5036762;28;20060;-43
2022/11/27 10:28:26;;;;;;;9.48;4.63;;;;;;;-143.48;87.70;118439.88;5014807;28;20042;-44
2022/11/27 10:30:59;;;;;;;10.18;4.10;;;;;;;-143.48;88.25;118439.88;5034118;28;20088;-43
2022/11/27 10:33:37;;;;;;;11.07;4.35;;;;;;;-143.48;87.75;118439.88;5036391;28;20018;-44
2022/11/27 10:36:02;;;;;;;13.38;4.93;;;;;;;-143.48;87.96;118439.88;5050995;28;20029;-43
2022/11/27 10:38:40;;;;;;;9.02;4.15;;;;;;;-143.48;88.20;118439.88;5036650;28;20113;-44
2022/11/27 10:41:19;;;;;;;17.15;4.88;;;;;;;-143.48;88.16;118439.88;5036406;28;20025;-42
2022/11/27 10:43:49;;;;;;;15.02;4.60;;;;;;;-143.48;88.05;118439.88;5036046;28;20036;-43
2022/11/27 10:46:22;;;;;;;9.93;4.43;;;;;;;-143.48;87.99;118439.88;5036112;28;20026;-42
2022/11/27 10:48:48;;;;;;;13.75;5.00;;;;;;;-143.48;88.71;118439.88;5036112;28;20033;-42
2022/11/27 10:51:17;;;;;;;13.23;4.88;;;;;;;-143.48;88.73;118439.88;5036396;28;20033;-46
2022/11/27 10:53:46;;;;;;;11.75;4.60;;;;;;;-143.48;88.90;118439.88;5036125;28;20017;-42
2022/11/27 10:56:11;;;;;;;13.18;5.07;;;;;;;-143.48;89.34;118439.88;5034572;28;20545;-43
2022/11/27 10:58:56;;;;;;;15.73;4.97;;;;;;;-143.48;88.62;118439.88;5036222;28;20049;-43
2022/11/27 11:01:23;;;;;;;8.05;4.38;;;;;;;-143.48;88.54;118439.88;5035908;28;20036;-43
2022/11/27 11:03:49;;;;;;;12.05;4.68;;;;;;;-143.48;89.44;118439.88;5035820;28;20040;-42
2022/11/27 11:06:22;;;;;;;14.70;5.18;;;;;;;-143.48;88.97;118439.88;5035777;28;20025;-42
2022/11/27 11:09:04;;;;;;;10.00;4.47;;;;;;;-143.48;88.62;118439.88;5035500;28;20082;-42
2022/11/27 11:11:29;;;;;;;11.75;5.03;;;;;;;-143.48;87.81;118439.88;5035675;28;20108;-43
2022/11/27 11:13:54;;;;;;;9.52;4.82;;;;;;;-143.48;87.42;118439.88;5036244;28;20152;-43